sensor_id;sensor_type;location;lat;lon;timestamp;temperature;humidity
44477;DHT22;30180;44.788;10.366;2022-10-23T00:01:39;20.50;75.10
44477;DHT22;30180;44.788;10.366;2022-10-23T00:04:11;20.50;75.10
44477;DHT22;30180;44.788;10.366;2022-10-23T00:06:39;20.50;75.10
44477;DHT22;30180;44.788;10.366;2022-10-23T00:09:18;20.50;75.10
44477;DHT22;30180;44.788;10.366;2022-10-23T00:11:47;20.50;75.10
44477;DHT22;30180;44.788;10.366;2022-10-23T00:14:17;20.50;75.10
44477;DHT22;30180;44.788;10.366;2022-10-23T00:16:54;20.50;75.10
44477;DHT22;30180;44.788;10.366;2022-10-23T00:19:22;20.50;75.10
44477;DHT22;30180;44.788;10.366;2022-10-23T00:21:54;20.50;75.10
44477;DHT22;30180;44.788;10.366;2022-10-23T00:24:28;20.50;75.10
44477;DHT22;30180;44.788;10.366;2022-10-23T00:26:56;20.50;75.10
44477;DHT22;30180;44.788;10.366;2022-10-23T00:29:27;20.50;75.00
44477;DHT22;30180;44.788;10.366;2022-10-23T00:31:56;20.50;75.00
44477;DHT22;30180;44.788;10.366;2022-10-23T00:34:25;20.50;75.00
44477;DHT22;30180;44.788;10.366;2022-10-23T00:36:53;20.50;75.10
44477;DHT22;30180;44.788;10.366;2022-10-23T00:39:21;20.50;75.00
44477;DHT22;30180;44.788;10.366;2022-10-23T00:41:49;20.50;75.00
44477;DHT22;30180;44.788;10.366;2022-10-23T00:47:30;20.50;75.00
44477;DHT22;30180;44.788;10.366;2022-10-23T00:49:58;20.50;75.00
44477;DHT22;30180;44.788;10.366;2022-10-23T00:52:31;20.50;75.00
44477;DHT22;30180;44.788;10.366;2022-10-23T00:55:07;20.50;75.00
44477;DHT22;30180;44.788;10.366;2022-10-23T00:57:35;20.50;75.10
44477;DHT22;30180;44.788;10.366;2022-10-23T01:00:16;20.50;75.00
44477;DHT22;30180;44.788;10.366;2022-10-23T01:02:46;20.50;75.10
44477;DHT22;30180;44.788;10.366;2022-10-23T01:05:14;20.50;75.00
44477;DHT22;30180;44.788;10.366;2022-10-23T01:07:53;20.50;75.00
44477;DHT22;30180;44.788;10.366;2022-10-23T01:10:29;20.50;75.10
44477;DHT22;30180;44.788;10.366;2022-10-23T01:13:06;20.50;75.70
44477;DHT22;30180;44.788;10.366;2022-10-23T01:15:40;20.50;75.00
44477;DHT22;30180;44.788;10.366;2022-10-23T01:18:18;20.50;75.00
44477;DHT22;30180;44.788;10.366;2022-10-23T01:20:51;20.50;75.00
44477;DHT22;30180;44.788;10.366;2022-10-23T01:23:38;20.50;75.00
44477;DHT22;30180;44.788;10.366;2022-10-23T01:26:33;20.50;75.00
44477;DHT22;30180;44.788;10.366;2022-10-23T01:29:07;20.50;75.60
44477;DHT22;30180;44.788;10.366;2022-10-23T01:31:41;20.50;75.00
44477;DHT22;30180;44.788;10.366;2022-10-23T01:34:13;20.50;75.00
44477;DHT22;30180;44.788;10.366;2022-10-23T01:36:46;20.50;75.00
44477;DHT22;30180;44.788;10.366;2022-10-23T01:39:19;20.50;75.00
44477;DHT22;30180;44.788;10.366;2022-10-23T01:41:52;20.50;75.00
44477;DHT22;30180;44.788;10.366;2022-10-23T01:44:25;20.50;75.00
44477;DHT22;30180;44.788;10.366;2022-10-23T01:46:55;20.50;75.00
44477;DHT22;30180;44.788;10.366;2022-10-23T01:49:24;20.50;75.00
44477;DHT22;30180;44.788;10.366;2022-10-23T01:51:55;20.50;75.00
44477;DHT22;30180;44.788;10.366;2022-10-23T01:54:28;20.50;75.00
44477;DHT22;30180;44.788;10.366;2022-10-23T01:56:58;20.50;75.00
44477;DHT22;30180;44.788;10.366;2022-10-23T01:59:30;20.50;75.00
44477;DHT22;30180;44.788;10.366;2022-10-23T02:02:00;20.50;75.00
44477;DHT22;30180;44.788;10.366;2022-10-23T02:04:33;20.50;75.00
44477;DHT22;30180;44.788;10.366;2022-10-23T02:07:02;20.50;75.00
44477;DHT22;30180;44.788;10.366;2022-10-23T02:09:30;20.50;75.00
44477;DHT22;30180;44.788;10.366;2022-10-23T02:12:05;20.50;75.00
44477;DHT22;30180;44.788;10.366;2022-10-23T02:14:42;20.50;75.00
44477;DHT22;30180;44.788;10.366;2022-10-23T02:17:16;20.50;75.00
44477;DHT22;30180;44.788;10.366;2022-10-23T02:19:55;20.50;75.00
44477;DHT22;30180;44.788;10.366;2022-10-23T02:22:27;20.50;75.00
44477;DHT22;30180;44.788;10.366;2022-10-23T02:24:59;20.50;75.00
44477;DHT22;30180;44.788;10.366;2022-10-23T02:27:37;20.50;75.00
44477;DHT22;30180;44.788;10.366;2022-10-23T02:30:11;20.50;75.00
44477;DHT22;30180;44.788;10.366;2022-10-23T02:32:43;20.50;75.00
44477;DHT22;30180;44.788;10.366;2022-10-23T02:35:12;20.50;75.00
44477;DHT22;30180;44.788;10.366;2022-10-23T02:37:40;20.50;75.00
44477;DHT22;30180;44.788;10.366;2022-10-23T02:40:10;20.50;75.00
44477;DHT22;30180;44.788;10.366;2022-10-23T02:42:41;20.50;75.00
44477;DHT22;30180;44.788;10.366;2022-10-23T02:45:27;20.50;75.00
44477;DHT22;30180;44.788;10.366;2022-10-23T02:47:59;20.50;75.00
44477;DHT22;30180;44.788;10.366;2022-10-23T02:50:36;20.50;75.00
44477;DHT22;30180;44.788;10.366;2022-10-23T02:53:10;20.50;75.00
44477;DHT22;30180;44.788;10.366;2022-10-23T02:55:49;20.50;75.00
44477;DHT22;30180;44.788;10.366;2022-10-23T02:58:26;20.50;75.00
44477;DHT22;30180;44.788;10.366;2022-10-23T03:01:04;20.50;75.00
44477;DHT22;30180;44.788;10.366;2022-10-23T03:03:38;20.50;75.00
44477;DHT22;30180;44.788;10.366;2022-10-23T03:06:08;20.50;75.10
44477;DHT22;30180;44.788;10.366;2022-10-23T03:08:43;20.50;75.00
44477;DHT22;30180;44.788;10.366;2022-10-23T03:11:12;20.50;75.00
44477;DHT22;30180;44.788;10.366;2022-10-23T03:13:40;20.50;75.00
44477;DHT22;30180;44.788;10.366;2022-10-23T03:16:09;20.50;75.00
44477;DHT22;30180;44.788;10.366;2022-10-23T03:18:37;20.50;75.00
44477;DHT22;30180;44.788;10.366;2022-10-23T03:21:06;20.50;75.00
44477;DHT22;30180;44.788;10.366;2022-10-23T03:23:35;20.50;75.00
44477;DHT22;30180;44.788;10.366;2022-10-23T03:26:04;20.50;75.00
44477;DHT22;30180;44.788;10.366;2022-10-23T03:28:32;20.50;75.00
44477;DHT22;30180;44.788;10.366;2022-10-23T03:31:01;20.50;75.00
44477;DHT22;30180;44.788;10.366;2022-10-23T03:33:31;20.50;75.00
44477;DHT22;30180;44.788;10.366;2022-10-23T03:35:59;20.50;75.00
44477;DHT22;30180;44.788;10.366;2022-10-23T03:38:27;20.50;75.00
44477;DHT22;30180;44.788;10.366;2022-10-23T03:40:55;20.50;75.00
44477;DHT22;30180;44.788;10.366;2022-10-23T03:43:23;20.50;75.00
44477;DHT22;30180;44.788;10.366;2022-10-23T03:45:52;20.50;75.00
44477;DHT22;30180;44.788;10.366;2022-10-23T03:48:20;20.50;75.00
44477;DHT22;30180;44.788;10.366;2022-10-23T03:50:51;20.50;75.00
44477;DHT22;30180;44.788;10.366;2022-10-23T03:53:19;20.50;75.00
44477;DHT22;30180;44.788;10.366;2022-10-23T03:55:47;20.50;75.00
44477;DHT22;30180;44.788;10.366;2022-10-23T03:58:15;20.50;75.00
44477;DHT22;30180;44.788;10.366;2022-10-23T04:00:44;20.50;75.00
44477;DHT22;30180;44.788;10.366;2022-10-23T04:03:12;20.50;75.00
44477;DHT22;30180;44.788;10.366;2022-10-23T04:05:40;20.50;75.00
44477;DHT22;30180;44.788;10.366;2022-10-23T04:08:10;20.50;75.00
44477;DHT22;30180;44.788;10.366;2022-10-23T04:10:45;20.50;75.00
44477;DHT22;30180;44.788;10.366;2022-10-23T04:13:13;20.50;75.00
44477;DHT22;30180;44.788;10.366;2022-10-23T04:15:47;20.50;75.00
44477;DHT22;30180;44.788;10.366;2022-10-23T04:18:24;20.50;75.00
44477;DHT22;30180;44.788;10.366;2022-10-23T04:21:00;20.50;75.00
44477;DHT22;30180;44.788;10.366;2022-10-23T04:23:30;20.50;75.00
44477;DHT22;30180;44.788;10.366;2022-10-23T04:25:58;20.50;75.00
44477;DHT22;30180;44.788;10.366;2022-10-23T04:28:27;20.50;75.00
44477;DHT22;30180;44.788;10.366;2022-10-23T04:30:55;20.50;75.00
44477;DHT22;30180;44.788;10.366;2022-10-23T04:33:23;20.50;75.00
44477;DHT22;30180;44.788;10.366;2022-10-23T04:35:52;20.40;74.90
44477;DHT22;30180;44.788;10.366;2022-10-23T04:38:20;20.50;75.00
44477;DHT22;30180;44.788;10.366;2022-10-23T04:40:50;20.50;75.00
44477;DHT22;30180;44.788;10.366;2022-10-23T04:43:18;20.50;75.00
44477;DHT22;30180;44.788;10.366;2022-10-23T04:45:47;20.50;75.00
44477;DHT22;30180;44.788;10.366;2022-10-23T04:48:16;20.40;74.90
44477;DHT22;30180;44.788;10.366;2022-10-23T04:50:57;20.50;75.00
44477;DHT22;30180;44.788;10.366;2022-10-23T04:53:26;20.50;75.00
44477;DHT22;30180;44.788;10.366;2022-10-23T04:55:57;20.50;75.00
44477;DHT22;30180;44.788;10.366;2022-10-23T04:58:28;20.40;74.90
44477;DHT22;30180;44.788;10.366;2022-10-23T05:00:57;20.40;74.90
44477;DHT22;30180;44.788;10.366;2022-10-23T05:03:26;20.50;75.00
44477;DHT22;30180;44.788;10.366;2022-10-23T05:05:55;20.40;74.90
44477;DHT22;30180;44.788;10.366;2022-10-23T05:08:23;20.50;75.00
44477;DHT22;30180;44.788;10.366;2022-10-23T05:10:51;20.50;75.00
44477;DHT22;30180;44.788;10.366;2022-10-23T05:13:21;20.50;74.90
44477;DHT22;30180;44.788;10.366;2022-10-23T05:15:50;20.40;74.90
44477;DHT22;30180;44.788;10.366;2022-10-23T05:18:21;20.50;75.00
44477;DHT22;30180;44.788;10.366;2022-10-23T05:20:54;20.50;74.90
44477;DHT22;30180;44.788;10.366;2022-10-23T05:23:24;20.50;75.00
44477;DHT22;30180;44.788;10.366;2022-10-23T05:25:56;20.50;74.90
44477;DHT22;30180;44.788;10.366;2022-10-23T05:28:25;20.50;74.90
44477;DHT22;30180;44.788;10.366;2022-10-23T05:30:54;20.50;74.90
44477;DHT22;30180;44.788;10.366;2022-10-23T05:33:24;20.40;74.90
44477;DHT22;30180;44.788;10.366;2022-10-23T05:35:53;20.40;74.90
44477;DHT22;30180;44.788;10.366;2022-10-23T05:38:22;20.40;74.90
44477;DHT22;30180;44.788;10.366;2022-10-23T05:40:51;20.50;75.00
44477;DHT22;30180;44.788;10.366;2022-10-23T05:43:20;20.50;75.60
44477;DHT22;30180;44.788;10.366;2022-10-23T05:45:49;20.50;75.00
44477;DHT22;30180;44.788;10.366;2022-10-23T05:48:17;20.50;75.10
44477;DHT22;30180;44.788;10.366;2022-10-23T05:51:04;20.50;75.10
44477;DHT22;30180;44.788;10.366;2022-10-23T05:53:32;20.50;75.00
44477;DHT22;30180;44.788;10.366;2022-10-23T05:56:05;20.50;75.00
44477;DHT22;30180;44.788;10.366;2022-10-23T05:58:34;20.50;75.00
44477;DHT22;30180;44.788;10.366;2022-10-23T06:01:06;20.50;74.90
44477;DHT22;30180;44.788;10.366;2022-10-23T06:03:35;20.50;74.90
44477;DHT22;30180;44.788;10.366;2022-10-23T06:06:04;20.50;74.90
44477;DHT22;30180;44.788;10.366;2022-10-23T06:08:33;20.50;74.90
44477;DHT22;30180;44.788;10.366;2022-10-23T06:11:06;20.50;74.90
44477;DHT22;30180;44.788;10.366;2022-10-23T06:13:35;20.50;74.80
44477;DHT22;30180;44.788;10.366;2022-10-23T06:16:09;20.50;74.80
44477;DHT22;30180;44.788;10.366;2022-10-23T06:18:37;20.50;74.90
44477;DHT22;30180;44.788;10.366;2022-10-23T06:21:05;20.50;74.80
44477;DHT22;30180;44.788;10.366;2022-10-23T06:23:35;20.50;74.80
44477;DHT22;30180;44.788;10.366;2022-10-23T06:26:05;20.50;74.80
44477;DHT22;30180;44.788;10.366;2022-10-23T06:28:36;20.50;74.80
44477;DHT22;30180;44.788;10.366;2022-10-23T06:31:04;20.50;74.80
44477;DHT22;30180;44.788;10.366;2022-10-23T06:33:34;20.50;74.80
44477;DHT22;30180;44.788;10.366;2022-10-23T06:36:03;20.50;74.80
44477;DHT22;30180;44.788;10.366;2022-10-23T06:38:32;20.50;74.80
44477;DHT22;30180;44.788;10.366;2022-10-23T06:41:03;20.50;74.80
44477;DHT22;30180;44.788;10.366;2022-10-23T06:43:31;20.50;74.80
44477;DHT22;30180;44.788;10.366;2022-10-23T06:46:01;20.50;74.80
44477;DHT22;30180;44.788;10.366;2022-10-23T06:48:29;20.50;74.80
44477;DHT22;30180;44.788;10.366;2022-10-23T06:51:03;20.50;74.80
44477;DHT22;30180;44.788;10.366;2022-10-23T06:53:32;20.50;74.80
44477;DHT22;30180;44.788;10.366;2022-10-23T06:56:03;20.50;74.80
44477;DHT22;30180;44.788;10.366;2022-10-23T06:58:32;20.50;74.80
44477;DHT22;30180;44.788;10.366;2022-10-23T07:01:02;20.50;74.80
44477;DHT22;30180;44.788;10.366;2022-10-23T07:03:31;20.50;74.80
44477;DHT22;30180;44.788;10.366;2022-10-23T07:06:02;20.40;74.80
44477;DHT22;30180;44.788;10.366;2022-10-23T07:08:30;20.50;74.80
44477;DHT22;30180;44.788;10.366;2022-10-23T07:11:02;20.50;74.80
44477;DHT22;30180;44.788;10.366;2022-10-23T07:13:34;20.50;74.80
44477;DHT22;30180;44.788;10.366;2022-10-23T07:16:09;20.50;74.80
44477;DHT22;30180;44.788;10.366;2022-10-23T07:18:37;20.50;74.80
44477;DHT22;30180;44.788;10.366;2022-10-23T07:21:07;20.40;74.70
44477;DHT22;30180;44.788;10.366;2022-10-23T07:23:36;20.40;74.80
44477;DHT22;30180;44.788;10.366;2022-10-23T07:26:09;20.50;74.80
44477;DHT22;30180;44.788;10.366;2022-10-23T07:28:40;20.40;74.70
44477;DHT22;30180;44.788;10.366;2022-10-23T07:31:10;20.50;74.80
44477;DHT22;30180;44.788;10.366;2022-10-23T07:33:39;20.40;75.40
44477;DHT22;30180;44.788;10.366;2022-10-23T07:36:09;20.40;74.80
44477;DHT22;30180;44.788;10.366;2022-10-23T07:38:40;20.50;74.80
44477;DHT22;30180;44.788;10.366;2022-10-23T07:41:08;20.40;74.80
44477;DHT22;30180;44.788;10.366;2022-10-23T07:43:38;20.50;74.80
44477;DHT22;30180;44.788;10.366;2022-10-23T07:46:06;20.40;74.80
44477;DHT22;30180;44.788;10.366;2022-10-23T07:48:35;20.40;74.80
44477;DHT22;30180;44.788;10.366;2022-10-23T07:51:06;20.40;74.80
44477;DHT22;30180;44.788;10.366;2022-10-23T07:53:38;20.40;74.80
44477;DHT22;30180;44.788;10.366;2022-10-23T07:56:12;20.40;74.80
44477;DHT22;30180;44.788;10.366;2022-10-23T07:58:41;20.40;74.80
44477;DHT22;30180;44.788;10.366;2022-10-23T08:01:19;20.40;74.80
44477;DHT22;30180;44.788;10.366;2022-10-23T08:03:49;20.40;74.80
44477;DHT22;30180;44.788;10.366;2022-10-23T08:06:17;20.40;74.80
44477;DHT22;30180;44.788;10.366;2022-10-23T08:08:47;20.40;74.80
44477;DHT22;30180;44.788;10.366;2022-10-23T08:11:17;20.40;74.80
44477;DHT22;30180;44.788;10.366;2022-10-23T08:13:50;20.40;74.80
44477;DHT22;30180;44.788;10.366;2022-10-23T08:16:18;20.40;74.80
44477;DHT22;30180;44.788;10.366;2022-10-23T08:18:47;20.40;74.80
44477;DHT22;30180;44.788;10.366;2022-10-23T08:21:17;20.40;74.80
44477;DHT22;30180;44.788;10.366;2022-10-23T08:23:46;20.40;74.80
44477;DHT22;30180;44.788;10.366;2022-10-23T08:26:15;20.40;74.80
44477;DHT22;30180;44.788;10.366;2022-10-23T08:28:43;20.40;74.80
44477;DHT22;30180;44.788;10.366;2022-10-23T08:31:13;20.40;74.80
44477;DHT22;30180;44.788;10.366;2022-10-23T08:33:41;20.40;74.80
44477;DHT22;30180;44.788;10.366;2022-10-23T08:36:16;20.40;74.80
44477;DHT22;30180;44.788;10.366;2022-10-23T08:38:46;20.40;74.80
44477;DHT22;30180;44.788;10.366;2022-10-23T08:41:23;20.50;74.80
44477;DHT22;30180;44.788;10.366;2022-10-23T08:43:55;20.40;74.80
44477;DHT22;30180;44.788;10.366;2022-10-23T08:46:29;20.40;74.80
44477;DHT22;30180;44.788;10.366;2022-10-23T08:49:07;20.40;74.80
44477;DHT22;30180;44.788;10.366;2022-10-23T08:51:46;20.40;74.80
44477;DHT22;30180;44.788;10.366;2022-10-23T08:54:23;20.40;74.80
44477;DHT22;30180;44.788;10.366;2022-10-23T08:56:56;20.40;74.80
44477;DHT22;30180;44.788;10.366;2022-10-23T08:59:28;20.40;74.80
44477;DHT22;30180;44.788;10.366;2022-10-23T09:02:01;20.40;74.80
44477;DHT22;30180;44.788;10.366;2022-10-23T09:04:31;20.40;74.80
44477;DHT22;30180;44.788;10.366;2022-10-23T09:07:06;20.40;74.80
44477;DHT22;30180;44.788;10.366;2022-10-23T09:09:59;20.40;74.80
44477;DHT22;30180;44.788;10.366;2022-10-23T09:12:29;20.40;74.80
44477;DHT22;30180;44.788;10.366;2022-10-23T09:15:19;20.40;74.80
44477;DHT22;30180;44.788;10.366;2022-10-23T09:17:55;20.40;74.80
44477;DHT22;30180;44.788;10.366;2022-10-23T09:20:27;20.40;74.80
44477;DHT22;30180;44.788;10.366;2022-10-23T09:22:59;20.40;74.80
44477;DHT22;30180;44.788;10.366;2022-10-23T09:25:32;20.40;74.80
44477;DHT22;30180;44.788;10.366;2022-10-23T09:28:01;20.40;74.80
44477;DHT22;30180;44.788;10.366;2022-10-23T09:30:34;20.40;74.80
44477;DHT22;30180;44.788;10.366;2022-10-23T09:33:13;20.40;74.80
44477;DHT22;30180;44.788;10.366;2022-10-23T09:35:52;20.40;74.80
44477;DHT22;30180;44.788;10.366;2022-10-23T09:38:27;20.40;74.80
44477;DHT22;30180;44.788;10.366;2022-10-23T09:40:58;20.40;74.80
44477;DHT22;30180;44.788;10.366;2022-10-23T09:43:27;20.40;74.80
44477;DHT22;30180;44.788;10.366;2022-10-23T09:45:57;20.40;74.80
44477;DHT22;30180;44.788;10.366;2022-10-23T09:48:25;20.40;74.80
44477;DHT22;30180;44.788;10.366;2022-10-23T09:50:55;20.40;74.80
44477;DHT22;30180;44.788;10.366;2022-10-23T09:53:33;20.40;74.80
44477;DHT22;30180;44.788;10.366;2022-10-23T09:56:05;20.40;74.80
44477;DHT22;30180;44.788;10.366;2022-10-23T09:58:41;20.40;74.80
44477;DHT22;30180;44.788;10.366;2022-10-23T10:01:22;20.40;74.80
44477;DHT22;30180;44.788;10.366;2022-10-23T10:03:51;20.40;74.80
44477;DHT22;30180;44.788;10.366;2022-10-23T10:06:25;20.40;74.80
44477;DHT22;30180;44.788;10.366;2022-10-23T10:08:55;20.40;74.80
44477;DHT22;30180;44.788;10.366;2022-10-23T10:11:43;20.40;74.80
44477;DHT22;30180;44.788;10.366;2022-10-23T10:14:39;20.40;74.80
44477;DHT22;30180;44.788;10.366;2022-10-23T10:17:17;20.40;74.80
44477;DHT22;30180;44.788;10.366;2022-10-23T10:22:56;20.40;74.80
44477;DHT22;30180;44.788;10.366;2022-10-23T10:25:29;20.40;74.80
44477;DHT22;30180;44.788;10.366;2022-10-23T10:28:15;20.40;74.80
44477;DHT22;30180;44.788;10.366;2022-10-23T10:30:52;20.40;74.80
44477;DHT22;30180;44.788;10.366;2022-10-23T10:33:30;20.40;74.80
44477;DHT22;30180;44.788;10.366;2022-10-23T10:36:12;20.40;74.80
44477;DHT22;30180;44.788;10.366;2022-10-23T10:38:47;20.40;74.80
44477;DHT22;30180;44.788;10.366;2022-10-23T10:41:36;20.40;74.80
44477;DHT22;30180;44.788;10.366;2022-10-23T10:44:32;20.40;74.80
44477;DHT22;30180;44.788;10.366;2022-10-23T10:47:13;20.40;74.80
44477;DHT22;30180;44.788;10.366;2022-10-23T10:49:59;20.40;74.80
44477;DHT22;30180;44.788;10.366;2022-10-23T10:52:44;20.40;74.80
44477;DHT22;30180;44.788;10.366;2022-10-23T10:55:20;20.40;74.80
44477;DHT22;30180;44.788;10.366;2022-10-23T10:57:55;20.40;74.80
44477;DHT22;30180;44.788;10.366;2022-10-23T11:00:29;20.40;74.80
44477;DHT22;30180;44.788;10.366;2022-10-23T11:03:01;20.40;74.80
44477;DHT22;30180;44.788;10.366;2022-10-23T11:05:35;20.40;74.80
44477;DHT22;30180;44.788;10.366;2022-10-23T11:08:11;20.40;74.80
44477;DHT22;30180;44.788;10.366;2022-10-23T11:10:44;20.40;74.80
44477;DHT22;30180;44.788;10.366;2022-10-23T11:13:24;20.40;74.80
44477;DHT22;30180;44.788;10.366;2022-10-23T11:15:57;20.40;74.80
44477;DHT22;30180;44.788;10.366;2022-10-23T11:18:29;20.40;74.80
44477;DHT22;30180;44.788;10.366;2022-10-23T11:21:08;20.40;74.80
44477;DHT22;30180;44.788;10.366;2022-10-23T11:27:23;20.40;74.80
44477;DHT22;30180;44.788;10.366;2022-10-23T11:30:18;20.40;74.80
44477;DHT22;30180;44.788;10.366;2022-10-23T11:35:50;20.40;74.80
44477;DHT22;30180;44.788;10.366;2022-10-23T11:38:25;20.40;74.80
44477;DHT22;30180;44.788;10.366;2022-10-23T11:40:57;20.40;74.80
44477;DHT22;30180;44.788;10.366;2022-10-23T11:43:30;20.40;74.80
44477;DHT22;30180;44.788;10.366;2022-10-23T11:46:12;20.40;74.80
44477;DHT22;30180;44.788;10.366;2022-10-23T11:48:43;20.40;74.80
44477;DHT22;30180;44.788;10.366;2022-10-23T11:51:27;20.40;74.90
44477;DHT22;30180;44.788;10.366;2022-10-23T11:57:01;20.40;74.80
44477;DHT22;30180;44.788;10.366;2022-10-23T11:59:49;20.40;74.80
44477;DHT22;30180;44.788;10.366;2022-10-23T12:02:34;20.40;74.80
44477;DHT22;30180;44.788;10.366;2022-10-23T12:05:25;20.40;74.90
44477;DHT22;30180;44.788;10.366;2022-10-23T12:08:00;20.40;74.80
44477;DHT22;30180;44.788;10.366;2022-10-23T12:10:32;20.30;74.80
44477;DHT22;30180;44.788;10.366;2022-10-23T12:13:03;20.40;74.80
44477;DHT22;30180;44.788;10.366;2022-10-23T12:15:32;20.40;74.80
44477;DHT22;30180;44.788;10.366;2022-10-23T12:18:12;20.40;74.80
44477;DHT22;30180;44.788;10.366;2022-10-23T12:20:48;20.40;74.80
44477;DHT22;30180;44.788;10.366;2022-10-23T12:23:39;20.40;74.80
44477;DHT22;30180;44.788;10.366;2022-10-23T12:26:23;20.40;74.80
44477;DHT22;30180;44.788;10.366;2022-10-23T12:29:00;20.40;74.90
44477;DHT22;30180;44.788;10.366;2022-10-23T12:31:36;20.40;74.80
44477;DHT22;30180;44.788;10.366;2022-10-23T12:34:22;20.40;74.90
44477;DHT22;30180;44.788;10.366;2022-10-23T12:37:07;20.40;74.90
44477;DHT22;30180;44.788;10.366;2022-10-23T12:39:38;20.40;74.90
44477;DHT22;30180;44.788;10.366;2022-10-23T12:42:14;20.40;74.90
44477;DHT22;30180;44.788;10.366;2022-10-23T12:44:43;20.40;74.90
44477;DHT22;30180;44.788;10.366;2022-10-23T12:47:14;20.40;75.50
44477;DHT22;30180;44.788;10.366;2022-10-23T12:49:48;20.40;74.90
44477;DHT22;30180;44.788;10.366;2022-10-23T12:52:19;20.40;74.90
44477;DHT22;30180;44.788;10.366;2022-10-23T12:54:48;20.40;74.90
44477;DHT22;30180;44.788;10.366;2022-10-23T12:57:19;20.40;74.90
44477;DHT22;30180;44.788;10.366;2022-10-23T12:59:50;20.40;74.90
44477;DHT22;30180;44.788;10.366;2022-10-23T13:02:22;20.40;74.90
44477;DHT22;30180;44.788;10.366;2022-10-23T13:04:52;20.40;74.90
44477;DHT22;30180;44.788;10.366;2022-10-23T13:07:26;20.40;74.90
44477;DHT22;30180;44.788;10.366;2022-10-23T13:09:56;20.40;75.50
44477;DHT22;30180;44.788;10.366;2022-10-23T13:12:27;20.40;74.90
44477;DHT22;30180;44.788;10.366;2022-10-23T13:15:14;20.40;74.80
44477;DHT22;30180;44.788;10.366;2022-10-23T13:17:44;20.40;74.90
44477;DHT22;30180;44.788;10.366;2022-10-23T13:20:20;20.40;74.90
44477;DHT22;30180;44.788;10.366;2022-10-23T13:22:57;20.40;74.90
44477;DHT22;30180;44.788;10.366;2022-10-23T13:25:29;20.40;74.90
44477;DHT22;30180;44.788;10.366;2022-10-23T13:28:14;20.40;74.80
44477;DHT22;30180;44.788;10.366;2022-10-23T13:30:58;20.40;74.90
44477;DHT22;30180;44.788;10.366;2022-10-23T13:33:32;20.40;74.90
44477;DHT22;30180;44.788;10.366;2022-10-23T13:36:02;20.40;74.90
44477;DHT22;30180;44.788;10.366;2022-10-23T13:38:34;20.40;74.90
44477;DHT22;30180;44.788;10.366;2022-10-23T13:41:04;20.30;74.80
44477;DHT22;30180;44.788;10.366;2022-10-23T13:43:33;20.40;74.90
44477;DHT22;30180;44.788;10.366;2022-10-23T13:46:02;20.40;74.80
44477;DHT22;30180;44.788;10.366;2022-10-23T13:48:39;20.40;74.90
44477;DHT22;30180;44.788;10.366;2022-10-23T13:51:11;20.40;74.90
44477;DHT22;30180;44.788;10.366;2022-10-23T13:53:48;20.40;74.80
44477;DHT22;30180;44.788;10.366;2022-10-23T13:56:18;20.40;74.90
44477;DHT22;30180;44.788;10.366;2022-10-23T13:58:47;20.40;74.90
44477;DHT22;30180;44.788;10.366;2022-10-23T14:01:19;20.40;74.90
44477;DHT22;30180;44.788;10.366;2022-10-23T14:03:48;20.40;74.90
44477;DHT22;30180;44.788;10.366;2022-10-23T14:06:16;20.40;74.90
44477;DHT22;30180;44.788;10.366;2022-10-23T14:08:49;20.40;74.90
44477;DHT22;30180;44.788;10.366;2022-10-23T14:11:18;20.40;74.90
44477;DHT22;30180;44.788;10.366;2022-10-23T14:13:47;20.40;74.90
44477;DHT22;30180;44.788;10.366;2022-10-23T14:16:17;20.40;74.90
44477;DHT22;30180;44.788;10.366;2022-10-23T14:18:46;20.30;74.80
44477;DHT22;30180;44.788;10.366;2022-10-23T14:21:16;20.40;74.90
44477;DHT22;30180;44.788;10.366;2022-10-23T14:23:45;20.40;74.90
44477;DHT22;30180;44.788;10.366;2022-10-23T14:26:17;20.40;74.90
44477;DHT22;30180;44.788;10.366;2022-10-23T14:28:45;20.40;74.90
44477;DHT22;30180;44.788;10.366;2022-10-23T14:31:15;20.40;74.90
44477;DHT22;30180;44.788;10.366;2022-10-23T14:33:44;20.40;74.90
44477;DHT22;30180;44.788;10.366;2022-10-23T14:36:13;20.40;74.90
44477;DHT22;30180;44.788;10.366;2022-10-23T14:38:44;20.30;74.90
44477;DHT22;30180;44.788;10.366;2022-10-23T14:41:12;20.40;74.90
44477;DHT22;30180;44.788;10.366;2022-10-23T14:43:42;20.40;74.90
44477;DHT22;30180;44.788;10.366;2022-10-23T14:46:13;20.40;74.90
44477;DHT22;30180;44.788;10.366;2022-10-23T14:48:42;20.40;74.90
44477;DHT22;30180;44.788;10.366;2022-10-23T14:51:19;20.40;75.00
44477;DHT22;30180;44.788;10.366;2022-10-23T14:53:54;20.40;74.90
44477;DHT22;30180;44.788;10.366;2022-10-23T14:56:25;20.40;75.00
44477;DHT22;30180;44.788;10.366;2022-10-23T14:58:55;20.40;75.00
44477;DHT22;30180;44.788;10.366;2022-10-23T15:01:28;20.30;74.90
44477;DHT22;30180;44.788;10.366;2022-10-23T15:03:57;20.40;75.00
44477;DHT22;30180;44.788;10.366;2022-10-23T15:06:25;20.40;75.00
44477;DHT22;30180;44.788;10.366;2022-10-23T15:08:54;20.40;75.00
44477;DHT22;30180;44.788;10.366;2022-10-23T15:11:23;20.40;75.00
44477;DHT22;30180;44.788;10.366;2022-10-23T15:13:51;20.40;75.00
44477;DHT22;30180;44.788;10.366;2022-10-23T15:16:27;20.40;75.00
44477;DHT22;30180;44.788;10.366;2022-10-23T15:18:56;20.40;75.00
44477;DHT22;30180;44.788;10.366;2022-10-23T15:21:24;20.40;75.00
44477;DHT22;30180;44.788;10.366;2022-10-23T15:24:03;20.40;75.00
44477;DHT22;30180;44.788;10.366;2022-10-23T15:26:32;20.40;75.00
44477;DHT22;30180;44.788;10.366;2022-10-23T15:29:00;20.40;75.00
44477;DHT22;30180;44.788;10.366;2022-10-23T15:31:50;20.40;75.00
44477;DHT22;30180;44.788;10.366;2022-10-23T15:34:21;20.40;75.00
44477;DHT22;30180;44.788;10.366;2022-10-23T15:36:49;20.30;74.90
44477;DHT22;30180;44.788;10.366;2022-10-23T15:39:20;20.30;74.90
44477;DHT22;30180;44.788;10.366;2022-10-23T15:41:51;20.40;75.10
44477;DHT22;30180;44.788;10.366;2022-10-23T15:44:22;20.40;75.80
44477;DHT22;30180;44.788;10.366;2022-10-23T15:46:53;20.40;75.80
44477;DHT22;30180;44.788;10.366;2022-10-23T15:49:23;20.40;75.20
44477;DHT22;30180;44.788;10.366;2022-10-23T15:51:54;20.50;75.30
44477;DHT22;30180;44.788;10.366;2022-10-23T15:54:22;20.50;75.20
44477;DHT22;30180;44.788;10.366;2022-10-23T15:56:56;20.50;75.20
44477;DHT22;30180;44.788;10.366;2022-10-23T15:59:24;20.50;75.10
44477;DHT22;30180;44.788;10.366;2022-10-23T16:01:54;20.50;75.10
44477;DHT22;30180;44.788;10.366;2022-10-23T16:04:23;20.50;75.10